createdAt,value
2019-06-20T00:01:22.074Z,27.90
2019-06-20T00:03:51.868Z,27.90
2019-06-20T00:06:21.786Z,27.80
2019-06-20T00:08:51.557Z,27.80
2019-06-20T00:11:21.758Z,27.70
2019-06-20T00:13:51.994Z,27.70
2019-06-20T00:16:21.844Z,27.60
2019-06-20T00:18:51.616Z,27.60
2019-06-20T00:21:21.891Z,27.60
2019-06-20T00:23:52.131Z,27.60
2019-06-20T00:26:21.959Z,27.60
2019-06-20T00:28:51.763Z,27.60
2019-06-20T00:31:21.870Z,27.50
2019-06-20T00:33:51.635Z,27.50
2019-06-20T00:36:21.443Z,27.50
2019-06-20T00:38:51.234Z,27.50
2019-06-20T00:41:21.071Z,27.40
2019-06-20T00:43:50.829Z,27.40
2019-06-20T00:46:21.245Z,27.30
2019-06-20T00:48:51.357Z,27.30
2019-06-20T00:51:21.576Z,27.30
2019-06-20T00:53:51.864Z,27.20
2019-06-20T00:56:21.707Z,27.20
2019-06-20T00:58:51.473Z,27.10
2019-06-20T01:01:21.294Z,27.10
2019-06-20T01:03:51.543Z,27.00
2019-06-20T01:06:21.351Z,26.90
2019-06-20T01:08:51.552Z,26.90
2019-06-20T01:11:21.887Z,26.80
2019-06-20T01:13:52.845Z,26.70
2019-06-20T01:16:22.991Z,26.60
2019-06-20T01:18:52.760Z,26.50
2019-06-20T01:21:22.574Z,26.50
2019-06-20T01:23:52.786Z,26.40
2019-06-20T01:26:22.990Z,26.30
2019-06-20T01:28:53.243Z,26.20
2019-06-20T01:31:23.397Z,26.10
2019-06-20T01:33:53.702Z,26.00
2019-06-20T01:36:24.071Z,25.90
2019-06-20T01:38:53.871Z,25.80
2019-06-20T01:41:24.205Z,25.70
2019-06-20T01:43:54.017Z,25.60
2019-06-20T01:46:23.804Z,25.50
2019-06-20T01:48:54.571Z,25.40
2019-06-20T01:51:24.732Z,25.30
2019-06-20T01:53:54.544Z,25.30
2019-06-20T01:56:24.318Z,25.20
2019-06-20T01:58:54.122Z,25.20
2019-06-20T02:01:24.379Z,25.10
2019-06-20T02:03:54.186Z,25.20
2019-06-20T02:06:24.490Z,25.10
2019-06-20T02:08:54.492Z,25.20
2019-06-20T02:11:24.379Z,25.10
2019-06-20T02:14:06.726Z,25.10
2019-06-20T02:16:26.137Z,25.10
2019-06-20T02:18:55.937Z,25.10
2019-06-20T02:21:25.708Z,25.10
2019-06-20T02:23:55.515Z,25.10
2019-06-20T02:26:25.295Z,25.10
2019-06-20T02:28:55.116Z,25.10
2019-06-20T02:31:25.242Z,25.10
2019-06-20T02:33:55.092Z,25.10
2019-06-20T02:36:24.852Z,25.10
2019-06-20T02:38:54.664Z,25.10
2019-06-20T02:41:24.445Z,25.00
2019-06-20T02:43:54.246Z,25.00
2019-06-20T02:46:24.031Z,24.90
2019-06-20T02:48:53.844Z,24.90
2019-06-20T02:51:24.142Z,24.90
2019-06-20T02:53:54.924Z,24.90
2019-06-20T02:56:25.218Z,24.80
2019-06-20T02:58:55.045Z,24.80
2019-06-20T03:01:25.319Z,24.80
2019-06-20T03:03:55.132Z,24.80
2019-06-20T03:06:24.894Z,24.70
2019-06-20T03:08:55.154Z,24.60
2019-06-20T03:11:25.457Z,24.60
2019-06-20T03:13:55.284Z,24.60
2019-06-20T03:16:25.104Z,24.50
2019-06-20T03:18:54.925Z,24.50
2019-06-20T03:21:25.215Z,24.40
2019-06-20T03:23:55.013Z,24.40
2019-06-20T03:26:25.320Z,24.40
2019-06-20T03:28:55.100Z,24.40
2019-06-20T03:31:24.933Z,24.40
2019-06-20T03:33:54.726Z,24.40
2019-06-20T03:36:24.539Z,24.40
2019-06-20T03:38:54.335Z,24.40
2019-06-20T03:41:24.677Z,24.40
2019-06-20T03:43:54.500Z,24.40
2019-06-20T03:46:24.832Z,24.40
2019-06-20T03:48:54.599Z,24.40
2019-06-20T03:51:24.430Z,24.40
2019-06-20T03:53:54.193Z,24.40
2019-06-20T03:56:24.018Z,24.40
2019-06-20T03:58:53.800Z,24.40
2019-06-20T04:01:23.580Z,24.40
2019-06-20T04:03:53.816Z,24.40
2019-06-20T04:06:23.581Z,24.40
2019-06-20T04:08:53.720Z,24.40
2019-06-20T04:11:23.519Z,24.40
2019-06-20T04:13:53.651Z,24.40
2019-06-20T04:16:24.037Z,24.40
2019-06-20T04:18:53.809Z,24.40
2019-06-20T04:21:23.619Z,24.40
2019-06-20T04:23:53.548Z,24.40
2019-06-20T04:26:23.367Z,24.40
2019-06-20T04:28:53.145Z,24.50
2019-06-20T04:31:23.301Z,24.50
2019-06-20T04:33:53.425Z,24.50
2019-06-20T04:36:23.218Z,24.50
2019-06-20T04:38:53.002Z,24.50
2019-06-20T04:41:23.164Z,24.50
2019-06-20T04:43:52.948Z,24.50
2019-06-20T04:46:28.239Z,24.50
2019-06-20T04:48:58.519Z,24.40
2019-06-20T04:51:28.322Z,24.40
2019-06-20T04:53:58.069Z,24.40
2019-06-20T04:56:27.880Z,24.40
2019-06-20T04:58:57.683Z,24.30
2019-06-20T05:01:28.032Z,24.30
2019-06-20T05:03:57.821Z,24.40
2019-06-20T05:06:28.262Z,24.40
2019-06-20T05:08:58.039Z,24.40
2019-06-20T05:11:28.427Z,24.40
2019-06-20T05:13:58.697Z,24.50
2019-06-20T05:16:28.506Z,24.50
2019-06-20T05:18:59.114Z,24.50
2019-06-20T05:21:29.880Z,24.50
2019-06-20T05:24:00.535Z,24.50
2019-06-20T05:26:32.102Z,24.50
2019-06-20T05:29:05.387Z,24.50
2019-06-20T05:31:34.550Z,24.50
2019-06-20T05:34:04.444Z,24.50
2019-06-20T05:36:34.451Z,24.50
2019-06-20T05:39:04.719Z,24.50
2019-06-20T05:41:35.499Z,24.50
2019-06-20T05:44:06.086Z,24.50
2019-06-20T05:46:48.611Z,24.50
2019-06-20T05:49:19.424Z,24.50
2019-06-20T05:51:49.237Z,24.50
2019-06-20T05:54:19.470Z,24.50
2019-06-20T05:56:49.632Z,24.60
2019-06-20T05:59:19.513Z,24.60
2019-06-20T06:01:50.287Z,24.60
2019-06-20T06:04:21.607Z,24.60
2019-06-20T06:06:51.502Z,24.60
2019-06-20T06:09:22.496Z,24.60
2019-06-20T06:11:52.325Z,24.60
2019-06-20T06:14:22.125Z,24.60
2019-06-20T06:16:51.909Z,24.60
2019-06-20T06:19:21.710Z,24.60
2019-06-20T06:21:52.034Z,24.60
2019-06-20T06:24:21.858Z,24.50
2019-06-20T06:26:51.641Z,24.50
2019-06-20T06:29:21.517Z,24.50
2019-06-20T06:31:51.326Z,24.50
2019-06-20T06:34:22.146Z,24.40
2019-06-20T06:36:52.692Z,24.40
2019-06-20T06:39:23.016Z,24.40
2019-06-20T06:41:52.790Z,24.40
2019-06-20T06:44:22.602Z,24.40
2019-06-20T06:46:57.571Z,24.40
2019-06-20T06:49:23.824Z,24.40
2019-06-20T06:51:54.714Z,24.40
2019-06-20T06:54:24.519Z,24.40
2019-06-20T06:56:54.722Z,24.40
2019-06-20T06:59:24.881Z,24.40
2019-06-20T07:01:54.649Z,24.40
2019-06-20T07:04:24.467Z,24.40
2019-06-20T07:06:54.269Z,24.40
2019-06-20T07:09:24.680Z,24.40
2019-06-20T07:11:54.844Z,24.40
2019-06-20T07:14:25.240Z,24.40
2019-06-20T07:17:00.286Z,24.40
2019-06-20T07:19:26.467Z,24.30
2019-06-20T07:21:56.240Z,24.30
2019-06-20T07:24:26.038Z,24.20
2019-06-20T07:26:55.817Z,24.10
2019-06-20T07:29:26.042Z,24.10
2019-06-20T07:31:56.655Z,24.00
2019-06-20T07:34:26.868Z,24.00
2019-06-20T07:36:56.653Z,23.90
2019-06-20T07:39:26.473Z,23.90
2019-06-20T07:41:56.198Z,23.80
2019-06-20T07:44:26.996Z,23.80
2019-06-20T07:46:57.271Z,23.80
2019-06-20T07:49:27.080Z,23.80
2019-06-20T07:51:57.905Z,23.80
2019-06-20T07:54:27.714Z,23.80
2019-06-20T07:56:57.500Z,23.80
2019-06-20T07:59:28.959Z,23.70
2019-06-20T08:01:59.127Z,23.80
2019-06-20T08:04:28.929Z,23.80
2019-06-20T08:06:58.733Z,23.80
2019-06-20T08:09:43.990Z,23.90
2019-06-20T08:12:00.944Z,23.90
2019-06-20T08:14:31.196Z,23.90
2019-06-20T08:17:01.430Z,24.00
2019-06-20T08:19:31.241Z,24.00
2019-06-20T08:22:01.016Z,24.00
2019-06-20T08:24:31.229Z,24.00
2019-06-20T08:27:03.074Z,24.10
2019-06-20T08:29:32.502Z,24.10
2019-06-20T08:32:02.793Z,24.10
2019-06-20T08:34:33.756Z,24.10
2019-06-20T08:37:04.372Z,24.10
2019-06-20T08:39:35.989Z,24.10
2019-06-20T08:42:06.709Z,24.20
2019-06-20T08:44:36.914Z,24.20
2019-06-20T08:47:07.875Z,24.20
2019-06-20T08:49:38.041Z,24.20
2019-06-20T08:52:07.858Z,24.20
2019-06-20T08:54:38.483Z,24.20
2019-06-20T08:57:08.297Z,24.20
2019-06-20T08:59:38.074Z,24.20
2019-06-20T09:02:08.331Z,24.20
2019-06-20T09:04:38.190Z,24.30
2019-06-20T09:07:08.028Z,24.20
2019-06-20T09:09:37.796Z,24.30
2019-06-20T09:12:07.809Z,24.30
2019-06-20T09:14:38.046Z,24.40
2019-06-20T09:17:09.149Z,24.30
2019-06-20T09:19:39.439Z,24.40
2019-06-20T09:22:09.248Z,24.40
2019-06-20T09:24:39.973Z,24.40
2019-06-20T09:27:10.113Z,24.50
2019-06-20T09:29:41.939Z,24.50
2019-06-20T09:32:11.815Z,24.50
2019-06-20T09:34:41.614Z,24.60
2019-06-20T09:37:11.429Z,24.60
2019-06-20T09:39:41.248Z,24.70
2019-06-20T09:42:11.054Z,24.70
2019-06-20T09:44:41.734Z,24.80
2019-06-20T09:47:11.564Z,24.80
2019-06-20T09:49:41.992Z,24.80
2019-06-20T09:52:11.924Z,24.80
2019-06-20T09:54:41.770Z,24.90
2019-06-20T09:57:12.135Z,24.90
2019-06-20T09:59:55.904Z,24.90
2019-06-20T10:02:14.273Z,24.90
2019-06-20T10:04:44.451Z,24.90
2019-06-20T10:07:14.705Z,25.00
2019-06-20T10:09:46.657Z,25.10
2019-06-20T10:12:16.120Z,25.10
2019-06-20T10:14:46.908Z,25.20
2019-06-20T10:17:17.415Z,25.30
2019-06-20T10:19:48.301Z,25.30
2019-06-20T10:22:18.295Z,25.40
2019-06-20T10:24:49.164Z,25.40
2019-06-20T10:27:19.006Z,25.40
2019-06-20T10:29:48.953Z,25.50
2019-06-20T10:32:18.925Z,25.60
2019-06-20T10:34:50.589Z,25.70
2019-06-20T10:37:20.498Z,25.70
2019-06-20T10:39:50.341Z,25.80
2019-06-20T10:42:20.159Z,25.80
2019-06-20T10:44:52.080Z,25.90
2019-06-20T10:47:32.435Z,26.00
2019-06-20T10:49:54.208Z,26.00
2019-06-20T10:52:24.055Z,26.10
2019-06-20T10:54:53.875Z,26.00
2019-06-20T10:57:23.644Z,26.00
2019-06-20T10:59:53.456Z,26.00
2019-06-20T11:02:23.579Z,26.00
2019-06-20T11:04:53.987Z,26.10
2019-06-20T11:07:24.974Z,26.10
2019-06-20T11:09:56.126Z,26.20
2019-06-20T11:12:42.438Z,26.20
2019-06-20T11:14:59.025Z,26.30
2019-06-20T11:17:28.819Z,26.40
2019-06-20T11:19:58.651Z,26.30
2019-06-20T11:22:28.462Z,26.30
2019-06-20T11:24:58.743Z,26.30
2019-06-20T11:27:28.974Z,26.30
2019-06-20T11:29:59.136Z,26.30
2019-06-20T11:32:28.934Z,26.30
2019-06-20T11:34:59.347Z,26.30
2019-06-20T11:37:29.705Z,26.40
2019-06-20T11:39:59.583Z,26.50
2019-06-20T11:42:29.348Z,26.50
2019-06-20T11:45:00.084Z,26.70
2019-06-20T11:47:29.858Z,26.80
2019-06-20T11:49:59.733Z,26.90
2019-06-20T11:52:35.255Z,27.00
2019-06-20T11:55:02.014Z,27.20
2019-06-20T11:57:32.608Z,27.30
2019-06-20T12:00:02.768Z,27.40
2019-06-20T12:02:33.277Z,27.50
2019-06-20T12:05:03.495Z,27.50
2019-06-20T12:07:34.200Z,27.50
2019-06-20T12:10:05.087Z,27.50
2019-06-20T12:12:35.886Z,27.50
2019-06-20T12:15:07.103Z,27.40
2019-06-20T12:17:39.318Z,27.40
2019-06-20T12:20:08.528Z,28.40
2019-06-20T12:22:39.958Z,27.40
2019-06-20T12:25:10.568Z,27.30
2019-06-20T12:27:43.184Z,27.30
2019-06-20T12:30:13.615Z,27.40
2019-06-20T12:32:44.743Z,27.40
2019-06-20T12:35:15.073Z,27.50
2019-06-20T12:37:45.428Z,27.50
2019-06-20T12:40:15.297Z,27.50
2019-06-20T12:42:46.777Z,27.50
2019-06-20T12:45:16.745Z,27.50
2019-06-20T12:47:47.438Z,27.50
2019-06-20T12:50:17.362Z,27.50
2019-06-20T12:52:49.678Z,27.50
2019-06-20T12:55:19.856Z,27.50
2019-06-20T12:57:49.667Z,27.60
2019-06-20T13:00:20.507Z,27.60
2019-06-20T13:02:51.291Z,27.70
2019-06-20T13:05:21.108Z,27.70
2019-06-20T13:07:51.214Z,27.80
2019-06-20T13:10:22.659Z,27.80
2019-06-20T13:12:53.021Z,27.90
2019-06-20T13:15:23.328Z,28.00
2019-06-20T13:17:53.433Z,28.00
2019-06-20T13:20:23.754Z,28.10
2019-06-20T13:22:54.445Z,28.10
2019-06-20T13:25:24.619Z,28.10
2019-06-20T13:27:54.429Z,28.20
2019-06-20T13:30:24.243Z,28.20
2019-06-20T13:32:54.154Z,28.10
2019-06-20T13:35:23.930Z,28.10
2019-06-20T13:37:54.099Z,28.10
2019-06-20T13:40:24.352Z,28.10
2019-06-20T13:42:54.794Z,28.00
2019-06-20T13:45:25.198Z,28.00
2019-06-20T13:47:55.446Z,28.00
2019-06-20T13:50:25.298Z,27.90
2019-06-20T13:52:56.215Z,27.90
2019-06-20T13:55:25.976Z,27.90
2019-06-20T13:57:56.883Z,27.80
2019-06-20T14:00:26.783Z,27.80
2019-06-20T14:02:57.232Z,27.70
2019-06-20T14:05:27.397Z,27.70
2019-06-20T14:07:57.531Z,27.70
2019-06-20T14:10:27.554Z,27.60
2019-06-20T14:12:58.863Z,27.60
2019-06-20T14:15:28.712Z,27.50
2019-06-20T14:17:59.141Z,27.40
2019-06-20T14:20:28.938Z,26.60
2019-06-20T14:22:58.820Z,27.40
2019-06-20T14:25:28.647Z,27.30
2019-06-20T14:27:59.374Z,27.20
2019-06-20T14:30:30.143Z,27.10
2019-06-20T14:33:00.071Z,27.00
2019-06-20T14:35:30.430Z,26.90
2019-06-20T14:38:00.532Z,26.80
2019-06-20T14:40:30.353Z,26.80
2019-06-20T14:43:00.995Z,26.70
2019-06-20T14:45:31.145Z,26.70
2019-06-20T14:48:01.463Z,26.60
2019-06-20T14:50:31.239Z,26.60
2019-06-20T14:53:01.629Z,26.50
2019-06-20T14:55:31.959Z,26.50
2019-06-20T14:58:02.569Z,26.50
2019-06-20T15:00:32.498Z,26.40
2019-06-20T15:03:03.133Z,26.40
2019-06-20T15:05:34.906Z,26.40
2019-06-20T15:08:04.792Z,26.40
2019-06-20T15:10:35.105Z,26.30
2019-06-20T15:13:05.024Z,26.30
2019-06-20T15:15:34.911Z,26.30
2019-06-20T15:18:04.758Z,26.30
2019-06-20T15:20:35.010Z,26.30
2019-06-20T15:23:05.270Z,26.30
2019-06-20T15:25:36.100Z,26.30
2019-06-20T15:28:05.936Z,26.30
2019-06-20T15:30:36.571Z,26.30
2019-06-20T15:33:10.360Z,26.30
2019-06-20T15:35:40.261Z,26.40
2019-06-20T15:38:10.582Z,26.40
2019-06-20T15:40:40.581Z,26.40
2019-06-20T15:43:10.431Z,26.40
2019-06-20T15:45:41.691Z,26.30
2019-06-20T15:48:11.900Z,26.30
2019-06-20T15:50:41.747Z,26.40
2019-06-20T15:53:11.543Z,26.30
2019-06-20T15:55:41.367Z,26.40
2019-06-20T15:58:11.555Z,26.30
2019-06-20T16:00:41.379Z,26.40
2019-06-20T16:03:14.383Z,26.30
2019-06-20T16:05:42.693Z,26.40
2019-06-20T16:08:12.837Z,26.30
2019-06-20T16:10:43.605Z,26.40
2019-06-20T16:13:13.883Z,26.40
2019-06-20T16:15:44.137Z,26.40
2019-06-20T16:18:14.374Z,26.40
2019-06-20T16:20:44.220Z,26.40
2019-06-20T16:23:14.488Z,26.40
2019-06-20T16:25:44.324Z,26.40
2019-06-20T16:28:14.473Z,26.40
2019-06-20T16:30:44.682Z,26.40
2019-06-20T16:33:24.817Z,26.40
2019-06-20T16:35:47.688Z,26.40
2019-06-20T16:38:17.848Z,26.40
2019-06-20T16:40:48.589Z,26.40
2019-06-20T16:43:18.743Z,26.40
2019-06-20T16:45:48.566Z,26.40
2019-06-20T16:48:18.375Z,26.40
2019-06-20T16:50:48.229Z,26.40
2019-06-20T16:53:18.902Z,26.30
2019-06-20T16:55:50.403Z,26.30
2019-06-20T16:58:20.682Z,26.30
2019-06-20T17:00:51.089Z,26.30
2019-06-20T17:03:21.855Z,26.30
2019-06-20T17:05:52.216Z,26.30
2019-06-20T17:08:22.020Z,26.30
2019-06-20T17:10:52.761Z,26.30
2019-06-20T17:13:25.629Z,26.30
2019-06-20T17:15:55.868Z,26.30
2019-06-20T17:18:26.153Z,26.30
2019-06-20T17:20:57.212Z,26.30
2019-06-20T17:23:27.052Z,26.30
2019-06-20T17:25:57.261Z,26.30
2019-06-20T17:28:27.072Z,26.30
2019-06-20T17:30:57.454Z,26.30
2019-06-20T17:33:27.285Z,26.30
2019-06-20T17:35:57.136Z,26.40
2019-06-20T17:38:27.582Z,26.40
2019-06-20T17:40:58.462Z,26.50
2019-06-20T17:43:28.298Z,26.50
2019-06-20T17:45:58.150Z,26.70
2019-06-20T17:48:28.108Z,26.70
2019-06-20T17:50:58.917Z,26.80
2019-06-20T17:53:29.158Z,26.80
2019-06-20T17:55:59.344Z,26.90
2019-06-20T17:58:30.179Z,26.90
2019-06-20T18:01:00.044Z,26.90
2019-06-20T18:03:30.298Z,26.90
2019-06-20T18:06:01.538Z,26.90
2019-06-20T18:08:31.881Z,26.90
2019-06-20T18:11:02.193Z,26.90
2019-06-20T18:13:32.129Z,26.80
2019-06-20T18:16:02.320Z,26.80
2019-06-20T18:18:32.756Z,26.80
2019-06-20T18:21:02.636Z,26.70
2019-06-20T18:23:32.519Z,26.70
2019-06-20T18:26:03.306Z,26.70
2019-06-20T18:28:33.833Z,26.60
2019-06-20T18:31:03.687Z,26.60
2019-06-20T18:33:33.888Z,26.60
2019-06-20T18:36:03.757Z,26.50
2019-06-20T18:38:34.081Z,26.50
2019-06-20T18:41:03.899Z,26.50
2019-06-20T18:43:34.595Z,26.50
2019-06-20T18:46:04.932Z,26.40
2019-06-20T18:48:34.763Z,26.40
2019-06-20T18:51:05.462Z,26.40
2019-06-20T18:53:35.797Z,26.30
2019-06-20T18:56:05.602Z,26.30
2019-06-20T18:58:35.442Z,26.30
2019-06-20T19:01:05.273Z,26.20
2019-06-20T19:03:35.138Z,26.20
2019-06-20T19:06:05.456Z,26.20
2019-06-20T19:08:35.335Z,26.20
2019-06-20T19:11:05.691Z,26.20
2019-06-20T19:13:36.081Z,26.10
2019-06-20T19:16:06.544Z,26.00
2019-06-20T19:18:37.319Z,26.00
2019-06-20T19:21:07.320Z,26.00
2019-06-20T19:23:37.601Z,26.00
2019-06-20T19:26:08.508Z,25.90
2019-06-20T19:28:38.969Z,25.90
2019-06-20T19:31:11.277Z,25.80
2019-06-20T19:33:41.686Z,25.80
2019-06-20T19:36:11.545Z,25.80
2019-06-20T19:38:41.873Z,25.80
2019-06-20T19:41:12.180Z,25.70
2019-06-20T19:43:43.012Z,25.70
2019-06-20T19:46:13.501Z,25.60
2019-06-20T19:48:43.438Z,25.60
2019-06-20T19:51:13.294Z,25.60
2019-06-20T19:53:45.928Z,25.50
2019-06-20T19:56:15.534Z,25.50
2019-06-20T19:58:45.621Z,25.40
2019-06-20T20:01:15.537Z,25.40
2019-06-20T20:03:45.511Z,25.40
2019-06-20T20:06:15.979Z,25.40
2019-06-20T20:08:46.307Z,25.40
2019-06-20T20:11:16.162Z,25.30
2019-06-20T20:13:46.011Z,25.30
2019-06-20T20:16:15.862Z,25.30
2019-06-20T20:18:45.705Z,25.30
2019-06-20T20:21:15.988Z,25.30
2019-06-20T20:23:45.880Z,25.20
2019-06-20T20:26:16.694Z,25.30
2019-06-20T20:28:47.745Z,25.20
2019-06-20T20:31:18.116Z,25.20
2019-06-20T20:33:47.892Z,25.20
2019-06-20T20:36:24.928Z,25.10
2019-06-20T20:38:49.771Z,25.10
2019-06-20T20:41:20.431Z,25.10
2019-06-20T20:43:50.574Z,25.00
2019-06-20T20:46:20.394Z,25.00
2019-06-20T20:48:50.671Z,25.00
2019-06-20T20:51:20.478Z,25.00
2019-06-20T20:53:50.255Z,25.00
2019-06-20T20:56:20.142Z,24.90
2019-06-20T20:58:50.006Z,24.90
2019-06-20T21:01:26.258Z,24.90
2019-06-20T21:03:56.904Z,24.90
2019-06-20T21:06:26.823Z,24.90
2019-06-20T21:08:57.108Z,24.90
2019-06-20T21:11:27.110Z,24.80
2019-06-20T21:13:57.906Z,24.80
2019-06-20T21:16:27.787Z,24.80
2019-06-20T21:18:57.672Z,24.70
2019-06-20T21:21:27.530Z,24.70
2019-06-20T21:23:58.354Z,24.70
2019-06-20T21:26:28.252Z,24.70
2019-06-20T21:28:59.053Z,24.60
2019-06-20T21:31:28.930Z,24.60
2019-06-20T21:33:59.193Z,24.60
2019-06-20T21:36:29.410Z,24.60
2019-06-20T21:38:59.212Z,24.60
2019-06-20T21:41:29.080Z,24.60
2019-06-20T21:43:58.869Z,24.60
2019-06-20T21:46:29.207Z,24.60
2019-06-20T21:48:59.051Z,24.60
2019-06-20T21:51:28.920Z,24.60
2019-06-20T21:53:59.099Z,24.60
2019-06-20T21:56:29.352Z,24.50
2019-06-20T21:58:59.626Z,24.50
2019-06-20T22:01:29.532Z,24.50
2019-06-20T22:03:59.398Z,24.50
2019-06-20T22:06:29.699Z,24.40
2019-06-20T22:08:59.640Z,24.40
2019-06-20T22:11:30.511Z,24.30
2019-06-20T22:14:01.874Z,24.30
2019-06-20T22:16:31.837Z,24.20
2019-06-20T22:19:01.701Z,24.20
2019-06-20T22:21:31.819Z,24.20
2019-06-20T22:24:01.658Z,24.10
2019-06-20T22:26:31.930Z,24.10
2019-06-20T22:29:01.735Z,24.10
2019-06-20T22:31:31.559Z,24.00
2019-06-20T22:34:01.478Z,24.00
2019-06-20T22:36:40.350Z,24.00
2019-06-20T22:39:02.801Z,23.90
2019-06-20T22:41:32.657Z,23.90
2019-06-20T22:44:02.461Z,23.90
2019-06-20T22:46:32.650Z,23.90
2019-06-20T22:49:03.044Z,23.80
2019-06-20T22:51:33.326Z,23.80
2019-06-20T22:54:03.252Z,23.80
2019-06-20T22:56:33.189Z,23.80
2019-06-20T22:59:03.068Z,23.80
2019-06-20T23:01:32.891Z,23.70
2019-06-20T23:04:03.338Z,23.70
2019-06-20T23:06:33.132Z,23.70
2019-06-20T23:09:03.109Z,23.70
2019-06-20T23:11:32.980Z,23.60
2019-06-20T23:14:02.824Z,23.60
2019-06-20T23:16:33.109Z,23.60
2019-06-20T23:19:02.930Z,23.60
2019-06-20T23:21:33.145Z,23.50
2019-06-20T23:24:03.009Z,23.50
2019-06-20T23:26:33.253Z,23.50
2019-06-20T23:29:20.759Z,23.50
2019-06-20T23:31:51.204Z,23.50
2019-06-20T23:34:22.433Z,23.40
2019-06-20T23:36:52.277Z,23.40
2019-06-20T23:39:22.114Z,23.40
2019-06-20T23:41:52.442Z,23.40
2019-06-20T23:44:22.795Z,23.30
2019-06-20T23:46:52.617Z,23.30
2019-06-20T23:49:22.457Z,23.30
2019-06-20T23:51:58.247Z,23.30
2019-06-20T23:54:28.500Z,23.30
2019-06-20T23:56:58.320Z,23.30
2019-06-20T23:59:28.212Z,23.30
